sensor_id;sensor_type;location;lat;lon;timestamp;pressure;altitude;pressure_sealevel;temperature;humidity
51986;BME280;38002;53.296;6.600;2023-07-24T01:53:16;100428.56;;;16.58;86.21
51986;BME280;38002;53.296;6.600;2023-07-24T01:58:16;100416.94;;;16.56;86.78
51986;BME280;38002;53.296;6.600;2023-07-24T02:03:17;100420.31;;;16.58;86.71
51986;BME280;38002;53.296;6.600;2023-07-24T02:08:17;100417.59;;;16.58;87.25
51986;BME280;38002;53.296;6.600;2023-07-24T02:13:18;100411.88;;;16.59;87.36
51986;BME280;38002;53.296;6.600;2023-07-24T02:18:18;100408.94;;;16.61;87.11
51986;BME280;38002;53.296;6.600;2023-07-24T02:23:18;100403.44;;;16.61;87.31
51986;BME280;38002;53.296;6.600;2023-07-24T02:28:19;100404.47;;;16.53;87.69
51986;BME280;38002;53.296;6.600;2023-07-24T02:33:19;100402.34;;;16.49;87.77
51986;BME280;38002;53.296;6.600;2023-07-24T02:38:20;100398.97;;;16.47;87.78
51986;BME280;38002;53.296;6.600;2023-07-24T02:43:20;100394.75;;;16.44;87.99
51986;BME280;38002;53.296;6.600;2023-07-24T02:48:20;100393.47;;;16.40;88.38
51986;BME280;38002;53.296;6.600;2023-07-24T02:53:21;100393.47;;;16.40;88.55
51986;BME280;38002;53.296;6.600;2023-07-24T02:58:21;100393.09;;;16.43;88.43
51986;BME280;38002;53.296;6.600;2023-07-24T03:03:22;100400.22;;;16.44;89.39
51986;BME280;38002;53.296;6.600;2023-07-24T03:08:23;100401.09;;;16.45;88.65
51986;BME280;38002;53.296;6.600;2023-07-24T03:13:23;100400.03;;;16.46;88.69
51986;BME280;38002;53.296;6.600;2023-07-24T03:18:24;100388.63;;;16.49;89.14
51986;BME280;38002;53.296;6.600;2023-07-24T03:23:25;100400.25;;;16.51;89.44
51986;BME280;38002;53.296;6.600;2023-07-24T03:28:25;100399.81;;;16.54;89.53
51986;BME280;38002;53.296;6.600;2023-07-24T03:33:27;100376.41;;;16.58;89.43
51986;BME280;38002;53.296;6.600;2023-07-24T03:38:28;100391.63;;;16.60;89.22
51986;BME280;38002;53.296;6.600;2023-07-24T03:43:28;100393.72;;;16.65;89.05
51986;BME280;38002;53.296;6.600;2023-07-24T03:48:28;100393.28;;;16.68;89.55
51986;BME280;38002;53.296;6.600;2023-07-24T03:53:29;100386.75;;;16.69;89.94
51986;BME280;38002;53.296;6.600;2023-07-24T03:58:29;100390.13;;;16.71;89.50
51986;BME280;38002;53.296;6.600;2023-07-24T04:03:30;100388.88;;;16.73;89.36
51986;BME280;38002;53.296;6.600;2023-07-24T04:08:30;100389.69;;;16.74;90.03
51986;BME280;38002;53.296;6.600;2023-07-24T04:13:31;100390.13;;;16.77;89.76
51986;BME280;38002;53.296;6.600;2023-07-24T04:18:32;100383.34;;;16.80;89.76
51986;BME280;38002;53.296;6.600;2023-07-24T04:23:32;100378.69;;;16.81;89.63
51986;BME280;38002;53.296;6.600;2023-07-24T04:28:33;100379.97;;;16.85;89.92
51986;BME280;38002;53.296;6.600;2023-07-24T04:33:33;100373.19;;;16.87;89.75
51986;BME280;38002;53.296;6.600;2023-07-24T04:38:34;100368.31;;;16.89;89.71
51986;BME280;38002;53.296;6.600;2023-07-24T04:43:34;100350.56;;;16.92;89.69
51986;BME280;38002;53.296;6.600;2023-07-24T04:48:35;100374.03;;;16.94;90.17
51986;BME280;38002;53.296;6.600;2023-07-24T04:53:35;100354.59;;;16.89;90.05
51986;BME280;38002;53.296;6.600;2023-07-24T04:58:36;100360.28;;;16.94;90.13
51986;BME280;38002;53.296;6.600;2023-07-24T05:03:37;100371.03;;;16.96;90.19
51986;BME280;38002;53.296;6.600;2023-07-24T05:08:38;100370.00;;;16.97;90.17
51986;BME280;38002;53.296;6.600;2023-07-24T05:13:38;100342.53;;;16.97;90.28
51986;BME280;38002;53.296;6.600;2023-07-24T05:18:39;100351.59;;;16.97;90.98
51986;BME280;38002;53.296;6.600;2023-07-24T05:23:39;100341.47;;;16.98;90.26
51986;BME280;38002;53.296;6.600;2023-07-24T05:28:40;100343.56;;;17.02;90.26
51986;BME280;38002;53.296;6.600;2023-07-24T05:33:40;100342.06;;;17.06;90.77
51986;BME280;38002;53.296;6.600;2023-07-24T05:38:40;100341.88;;;17.08;90.76
51986;BME280;38002;53.296;6.600;2023-07-24T05:43:41;100345.03;;;17.11;90.42
51986;BME280;38002;53.296;6.600;2023-07-24T05:48:41;100344.38;;;17.16;90.32
51986;BME280;38002;53.296;6.600;2023-07-24T05:53:42;100341.19;;;17.19;90.21
51986;BME280;38002;53.296;6.600;2023-07-24T05:58:42;100352.81;;;17.21;90.14
51986;BME280;38002;53.296;6.600;2023-07-24T06:03:45;100362.50;;;17.23;90.63
51986;BME280;38002;53.296;6.600;2023-07-24T06:08:45;100350.06;;;17.21;90.06
51986;BME280;38002;53.296;6.600;2023-07-24T06:13:47;100351.56;;;17.17;91.77
51986;BME280;38002;53.296;6.600;2023-07-24T06:18:47;100362.09;;;17.20;90.55
51986;BME280;38002;53.296;6.600;2023-07-24T06:23:48;100355.97;;;17.24;90.39
51986;BME280;38002;53.296;6.600;2023-07-24T06:28:48;100346.22;;;17.29;90.30
51986;BME280;38002;53.296;6.600;2023-07-24T06:33:49;100338.31;;;17.39;90.70
51986;BME280;38002;53.296;6.600;2023-07-24T06:38:49;100338.72;;;17.49;90.67
51986;BME280;38002;53.296;6.600;2023-07-24T06:43:50;100338.66;;;17.62;90.43
51986;BME280;38002;53.296;6.600;2023-07-24T06:48:50;100344.09;;;17.75;90.16
51986;BME280;38002;53.296;6.600;2023-07-24T06:53:51;100351.19;;;17.89;89.87
51986;BME280;38002;53.296;6.600;2023-07-24T06:58:51;100347.13;;;17.98;89.74
51986;BME280;38002;53.296;6.600;2023-07-24T07:03:52;100339.63;;;18.05;89.77
51986;BME280;38002;53.296;6.600;2023-07-24T07:08:52;100353.13;;;18.13;89.74
51986;BME280;38002;53.296;6.600;2023-07-24T07:13:53;100340.97;;;18.21;89.42
51986;BME280;38002;53.296;6.600;2023-07-24T07:18:53;100348.75;;;18.31;89.27
51986;BME280;38002;53.296;6.600;2023-07-24T07:23:54;100353.97;;;18.39;89.01
51986;BME280;38002;53.296;6.600;2023-07-24T07:28:55;100341.44;;;18.43;88.72
51986;BME280;38002;53.296;6.600;2023-07-24T07:33:55;100349.00;;;18.47;88.72
51986;BME280;38002;53.296;6.600;2023-07-24T07:38:56;100337.31;;;18.52;88.51
51986;BME280;38002;53.296;6.600;2023-07-24T07:43:57;100335.63;;;18.57;88.25
51986;BME280;38002;53.296;6.600;2023-07-24T07:48:58;100337.00;;;18.67;88.15
51986;BME280;38002;53.296;6.600;2023-07-24T07:53:58;100328.81;;;18.78;88.30
51986;BME280;38002;53.296;6.600;2023-07-24T07:58:59;100326.53;;;18.93;87.92
51986;BME280;38002;53.296;6.600;2023-07-24T08:03:59;100328.75;;;19.03;87.85
51986;BME280;38002;53.296;6.600;2023-07-24T08:09:00;100322.00;;;19.17;87.52
51986;BME280;38002;53.296;6.600;2023-07-24T08:14:00;100318.50;;;19.28;87.10
51986;BME280;38002;53.296;6.600;2023-07-24T08:19:01;100330.41;;;19.40;86.74
51986;BME280;38002;53.296;6.600;2023-07-24T08:24:01;100332.72;;;19.43;86.23
51986;BME280;38002;53.296;6.600;2023-07-24T08:29:02;100337.84;;;19.40;86.41
51986;BME280;38002;53.296;6.600;2023-07-24T08:34:03;100335.56;;;19.37;86.13
51986;BME280;38002;53.296;6.600;2023-07-24T08:39:04;100331.94;;;19.36;86.33
51986;BME280;38002;53.296;6.600;2023-07-24T08:44:08;100322.97;;;19.41;86.01
51986;BME280;38002;53.296;6.600;2023-07-24T08:49:12;100323.28;;;19.51;85.89
51986;BME280;38002;53.296;6.600;2023-07-24T08:54:16;100317.81;;;19.63;85.72
51986;BME280;38002;53.296;6.600;2023-07-24T08:59:18;100317.28;;;19.84;85.28
51986;BME280;38002;53.296;6.600;2023-07-24T09:04:18;100316.97;;;20.04;84.68
51986;BME280;38002;53.296;6.600;2023-07-24T09:09:19;100310.75;;;20.20;84.06
51986;BME280;38002;53.296;6.600;2023-07-24T09:14:28;100302.25;;;20.33;83.62
51986;BME280;38002;53.296;6.600;2023-07-24T09:19:30;100303.72;;;20.35;83.25
51986;BME280;38002;53.296;6.600;2023-07-24T09:24:31;100307.78;;;20.33;83.29
51986;BME280;38002;53.296;6.600;2023-07-24T09:29:32;100297.34;;;20.35;83.35
51986;BME280;38002;53.296;6.600;2023-07-24T09:34:33;100297.84;;;20.44;82.99
51986;BME280;38002;53.296;6.600;2023-07-24T09:39:34;100302.38;;;20.73;82.67
51986;BME280;38002;53.296;6.600;2023-07-24T09:44:34;100295.97;;;20.96;81.78
51986;BME280;38002;53.296;6.600;2023-07-24T09:49:35;100293.56;;;20.99;81.40
51986;BME280;38002;53.296;6.600;2023-07-24T09:54:43;100298.34;;;21.15;78.12
51986;BME280;38002;53.296;6.600;2023-07-24T09:59:46;100297.97;;;21.12;80.03
51986;BME280;38002;53.296;6.600;2023-07-24T13:35:19;100267.66;;;19.54;83.14
51986;BME280;38002;53.296;6.600;2023-07-24T13:40:19;100260.84;;;19.68;83.42
51986;BME280;38002;53.296;6.600;2023-07-24T13:45:20;100272.78;;;19.92;82.98
51986;BME280;38002;53.296;6.600;2023-07-24T13:50:21;100274.97;;;20.02;82.24
51986;BME280;38002;53.296;6.600;2023-07-24T13:55:21;100272.56;;;20.28;82.20
51986;BME280;38002;53.296;6.600;2023-07-24T14:00:21;100293.63;;;20.41;81.02
51986;BME280;38002;53.296;6.600;2023-07-24T14:05:22;100285.69;;;20.33;81.31
51986;BME280;38002;53.296;6.600;2023-07-24T14:10:25;100310.75;;;20.20;80.98
51986;BME280;38002;53.296;6.600;2023-07-24T14:15:25;100330.28;;;20.07;80.96
51986;BME280;38002;53.296;6.600;2023-07-24T14:20:26;100335.44;;;19.91;80.63
51986;BME280;38002;53.296;6.600;2023-07-24T14:25:26;100344.25;;;19.70;80.73
51986;BME280;38002;53.296;6.600;2023-07-24T14:30:27;100351.97;;;19.50;80.79
51986;BME280;38002;53.296;6.600;2023-07-24T14:35:28;100352.19;;;19.48;80.89
51986;BME280;38002;53.296;6.600;2023-07-24T14:40:28;100361.50;;;19.47;80.43
51986;BME280;38002;53.296;6.600;2023-07-24T14:45:29;100368.34;;;19.45;79.73
51986;BME280;38002;53.296;6.600;2023-07-24T14:50:30;100359.69;;;19.23;79.57
51986;BME280;38002;53.296;6.600;2023-07-24T14:55:30;100360.16;;;19.02;79.69
51986;BME280;38002;53.296;6.600;2023-07-24T15:00:32;100362.38;;;18.93;79.60
51986;BME280;38002;53.296;6.600;2023-07-24T15:05:32;100361.19;;;18.83;79.44
51986;BME280;38002;53.296;6.600;2023-07-24T15:10:33;100364.75;;;18.65;78.91
51986;BME280;38002;53.296;6.600;2023-07-24T15:15:34;100361.34;;;18.45;78.68
51986;BME280;38002;53.296;6.600;2023-07-24T15:20:35;100363.53;;;18.36;79.03
51986;BME280;38002;53.296;6.600;2023-07-24T15:25:35;100374.06;;;18.39;78.43
51986;BME280;38002;53.296;6.600;2023-07-24T15:30:36;100383.00;;;18.35;78.42
51986;BME280;38002;53.296;6.600;2023-07-24T15:35:37;100389.84;;;18.26;78.46
51986;BME280;38002;53.296;6.600;2023-07-24T15:40:38;100402.06;;;18.11;78.17
51986;BME280;38002;53.296;6.600;2023-07-24T15:45:40;100402.13;;;17.98;78.08
51986;BME280;38002;53.296;6.600;2023-07-24T15:50:40;100409.56;;;17.91;77.80
51986;BME280;38002;53.296;6.600;2023-07-24T15:55:41;100418.28;;;17.88;78.12
51986;BME280;38002;53.296;6.600;2023-07-24T16:00:41;100428.03;;;17.84;78.08
51986;BME280;38002;53.296;6.600;2023-07-24T16:05:43;100436.88;;;17.86;78.17
51986;BME280;38002;53.296;6.600;2023-07-24T16:10:44;100436.72;;;17.81;78.25
51986;BME280;38002;53.296;6.600;2023-07-24T16:15:44;100448.59;;;17.82;78.30
51986;BME280;38002;53.296;6.600;2023-07-24T16:20:45;100447.75;;;17.75;78.30
51986;BME280;38002;53.296;6.600;2023-07-24T16:25:46;100448.41;;;17.70;78.16
51986;BME280;38002;53.296;6.600;2023-07-24T16:30:46;100447.34;;;17.71;78.30
51986;BME280;38002;53.296;6.600;2023-07-24T16:35:47;100458.53;;;17.76;77.64
51986;BME280;38002;53.296;6.600;2023-07-24T16:40:48;100461.91;;;17.78;76.79
51986;BME280;38002;53.296;6.600;2023-07-24T16:45:51;100468.91;;;17.74;76.98
51986;BME280;38002;53.296;6.600;2023-07-24T16:50:51;100476.13;;;17.68;76.72
51986;BME280;38002;53.296;6.600;2023-07-24T16:55:52;100472.75;;;17.66;77.00
51986;BME280;38002;53.296;6.600;2023-07-24T17:00:52;100479.94;;;17.67;76.99
51986;BME280;38002;53.296;6.600;2023-07-24T17:05:53;100487.13;;;17.68;76.77
51986;BME280;38002;53.296;6.600;2023-07-24T17:10:53;100496.84;;;17.71;76.88
51986;BME280;38002;53.296;6.600;2023-07-24T17:15:54;100503.84;;;17.67;76.57
51986;BME280;38002;53.296;6.600;2023-07-24T17:20:54;100510.00;;;17.62;76.78
51986;BME280;38002;53.296;6.600;2023-07-24T17:25:55;100512.34;;;17.59;76.30
51986;BME280;38002;53.296;6.600;2023-07-24T17:30:55;100517.19;;;17.50;76.65
51986;BME280;38002;53.296;6.600;2023-07-24T17:35:56;100518.28;;;17.43;76.60
51986;BME280;38002;53.296;6.600;2023-07-24T17:40:56;100514.25;;;17.39;76.77
51986;BME280;38002;53.296;6.600;2023-07-24T17:46:00;100517.66;;;17.34;76.84
51986;BME280;38002;53.296;6.600;2023-07-24T17:51:01;100527.16;;;17.32;76.60
51986;BME280;38002;53.296;6.600;2023-07-24T17:56:02;100536.25;;;17.32;76.50
51986;BME280;38002;53.296;6.600;2023-07-24T18:01:04;100537.31;;;17.31;76.79
51986;BME280;38002;53.296;6.600;2023-07-24T18:06:04;100533.09;;;17.29;77.07
51986;BME280;38002;53.296;6.600;2023-07-24T18:11:04;100540.94;;;17.25;77.14
51986;BME280;38002;53.296;6.600;2023-07-24T18:16:05;100554.66;;;17.18;76.76
51986;BME280;38002;53.296;6.600;2023-07-24T18:21:05;100562.72;;;17.07;77.03
51986;BME280;38002;53.296;6.600;2023-07-24T18:26:07;100565.44;;;16.87;77.23
51986;BME280;38002;53.296;6.600;2023-07-24T18:31:08;100570.72;;;16.75;77.22
51986;BME280;38002;53.296;6.600;2023-07-24T18:36:08;100566.88;;;16.70;77.65
51986;BME280;38002;53.296;6.600;2023-07-24T18:41:09;100570.06;;;16.67;77.92
51986;BME280;38002;53.296;6.600;2023-07-24T18:46:10;100568.78;;;16.63;78.21
51986;BME280;38002;53.296;6.600;2023-07-24T18:51:11;100575.94;;;16.57;78.11
51986;BME280;38002;53.296;6.600;2023-07-24T18:56:12;100584.78;;;16.53;78.46
51986;BME280;38002;53.296;6.600;2023-07-24T19:01:13;100591.34;;;16.52;78.68
51986;BME280;38002;53.296;6.600;2023-07-24T19:06:14;100595.13;;;16.51;78.70
51986;BME280;38002;53.296;6.600;2023-07-24T19:11:18;100603.38;;;16.51;78.44
51986;BME280;38002;53.296;6.600;2023-07-24T19:16:19;100602.72;;;16.49;78.82
51986;BME280;38002;53.296;6.600;2023-07-24T19:21:19;100604.19;;;16.45;78.72
51986;BME280;38002;53.296;6.600;2023-07-24T19:26:20;100610.09;;;16.42;78.73
51986;BME280;38002;53.296;6.600;2023-07-24T19:31:20;100613.03;;;16.40;78.53
51986;BME280;38002;53.296;6.600;2023-07-24T19:36:21;100609.84;;;16.37;78.59
51986;BME280;38002;53.296;6.600;2023-07-24T19:41:21;100626.56;;;16.35;78.53
51986;BME280;38002;53.296;6.600;2023-07-24T19:46:22;100630.94;;;16.29;78.64
51986;BME280;38002;53.296;6.600;2023-07-24T19:51:23;100636.84;;;16.26;78.86
51986;BME280;38002;53.296;6.600;2023-07-24T19:56:23;100641.69;;;16.24;78.83
51986;BME280;38002;53.296;6.600;2023-07-24T20:01:24;100651.19;;;16.22;78.72
51986;BME280;38002;53.296;6.600;2023-07-24T20:06:27;100654.31;;;16.19;78.77
51986;BME280;38002;53.296;6.600;2023-07-24T20:11:27;100653.88;;;16.15;78.79
51986;BME280;38002;53.296;6.600;2023-07-24T20:16:28;100657.84;;;16.06;78.44
51986;BME280;38002;53.296;6.600;2023-07-24T20:21:29;100659.72;;;15.99;78.86
51986;BME280;38002;53.296;6.600;2023-07-24T20:26:29;100664.94;;;15.94;79.23
51986;BME280;38002;53.296;6.600;2023-07-24T20:31:30;100675.88;;;15.87;78.91
51986;BME280;38002;53.296;6.600;2023-07-24T20:36:31;100677.94;;;15.79;78.92
51986;BME280;38002;53.296;6.600;2023-07-24T20:41:37;100680.00;;;15.70;79.26
51986;BME280;38002;53.296;6.600;2023-07-24T20:46:37;100686.06;;;15.66;79.23
51986;BME280;38002;53.296;6.600;2023-07-24T20:51:38;100686.00;;;15.59;79.38
51986;BME280;38002;53.296;6.600;2023-07-24T20:56:38;100685.13;;;15.52;79.44
51986;BME280;38002;53.296;6.600;2023-07-24T21:01:39;100692.00;;;15.48;79.65
51986;BME280;38002;53.296;6.600;2023-07-24T21:06:40;100694.69;;;15.41;79.68
51986;BME280;38002;53.296;6.600;2023-07-24T21:11:41;100702.63;;;15.36;79.67
51986;BME280;38002;53.296;6.600;2023-07-24T21:16:42;100684.84;;;15.26;79.79
51986;BME280;38002;53.296;6.600;2023-07-24T21:21:44;100693.56;;;15.15;79.57
51986;BME280;38002;53.296;6.600;2023-07-24T21:26:44;100701.56;;;15.10;79.84
51986;BME280;38002;53.296;6.600;2023-07-24T21:31:46;100699.13;;;15.00;79.48
51986;BME280;38002;53.296;6.600;2023-07-24T21:36:48;100703.03;;;14.91;79.86
51986;BME280;38002;53.296;6.600;2023-07-24T21:41:51;100712.00;;;14.85;79.79
51986;BME280;38002;53.296;6.600;2023-07-24T21:46:52;100708.38;;;14.78;79.65
51986;BME280;38002;53.296;6.600;2023-07-24T21:51:53;100722.16;;;14.70;79.86
51986;BME280;38002;53.296;6.600;2023-07-24T21:56:54;100724.63;;;14.65;80.27
51986;BME280;38002;53.296;6.600;2023-07-24T22:01:54;100737.00;;;14.61;80.08
51986;BME280;38002;53.296;6.600;2023-07-24T22:06:55;100734.66;;;14.58;80.07
51986;BME280;38002;53.296;6.600;2023-07-24T22:11:55;100733.34;;;14.53;80.32
51986;BME280;38002;53.296;6.600;2023-07-24T22:16:56;100731.16;;;14.49;80.19
51986;BME280;38002;53.296;6.600;2023-07-24T22:21:57;100731.06;;;14.42;80.32
51986;BME280;38002;53.296;6.600;2023-07-24T22:26:57;100741.44;;;14.32;80.53
51986;BME280;38002;53.296;6.600;2023-07-24T22:31:59;100744.63;;;14.21;80.56
51986;BME280;38002;53.296;6.600;2023-07-24T22:36:59;100737.75;;;14.11;81.07
51986;BME280;38002;53.296;6.600;2023-07-24T22:42:00;100748.97;;;14.01;81.00
51986;BME280;38002;53.296;6.600;2023-07-24T22:47:01;100748.22;;;13.92;81.23
51986;BME280;38002;53.296;6.600;2023-07-24T22:52:02;100754.59;;;13.85;80.91
51986;BME280;38002;53.296;6.600;2023-07-24T22:57:02;100755.50;;;13.77;81.46
51986;BME280;38002;53.296;6.600;2023-07-24T23:02:03;100753.72;;;13.70;81.24
51986;BME280;38002;53.296;6.600;2023-07-24T23:07:04;100751.91;;;13.62;81.67
51986;BME280;38002;53.296;6.600;2023-07-24T23:12:05;100756.59;;;13.53;81.46
51986;BME280;38002;53.296;6.600;2023-07-24T23:17:05;100759.88;;;13.49;81.22
51986;BME280;38002;53.296;6.600;2023-07-24T23:22:06;100757.00;;;13.42;81.31
51986;BME280;38002;53.296;6.600;2023-07-24T23:27:06;100756.75;;;13.37;81.72
51986;BME280;38002;53.296;6.600;2023-07-24T23:32:07;100753.69;;;13.32;81.66
51986;BME280;38002;53.296;6.600;2023-07-24T23:37:08;100752.72;;;13.25;81.68
51986;BME280;38002;53.296;6.600;2023-07-24T23:42:08;100755.81;;;13.22;81.91
51986;BME280;38002;53.296;6.600;2023-07-24T23:47:12;100753.78;;;13.16;82.18
51986;BME280;38002;53.296;6.600;2023-07-24T23:52:13;100753.53;;;13.11;81.98
51986;BME280;38002;53.296;6.600;2023-07-24T23:57:13;100762.22;;;13.06;82.36
